Time;durP1;ratioP1;P1;durP2;ratioP2;P2;SDS_P1;SDS_P2;PMS_P1;PMS_P2;Temp;Humidity;BMP_temperature;BMP_pressure;BME280_temperature;BME280_humidity;BME280_pressure;Samples;Min_cycle;Max_cycle;Signal;HPM_P1;HPM_P2
2022/02/05 00:02:53;;;;;;;4.43;1.00;;;3.80;99.90;;;;;;5058008;28;20621;-77
2022/02/05 00:05:20;;;;;;;2.10;0.77;;;6.00;99.90;;;;;;5052276;28;20485;-77
2022/02/05 00:07:56;;;;;;;4.00;0.57;;;3.50;99.90;;;;;;5052296;28;20039;-77
2022/02/05 00:11:01;;;;;;;2.10;0.77;;;3.60;99.90;;;;;;5051606;28;20025;-78
2022/02/05 00:13:36;;;;;;;2.28;0.70;;;3.50;99.90;;;;;;5054141;28;20032;-78
2022/02/05 00:40:59;;;;;;;3.67;0.55;;;2.60;99.90;;;;;;5052060;28;20064;-77
2022/02/05 00:43:17;;;;;;;3.20;1.20;;;2.70;99.90;;;;;;5051346;28;20099;-77
2022/02/05 00:45:49;;;;;;;2.08;0.70;;;2.60;99.90;;;;;;5054311;28;20035;-77
2022/02/05 00:48:15;;;;;;;1.58;0.93;;;4.70;99.90;;;;;;5057351;28;20096;-77
2022/02/05 00:50:46;;;;;;;4.30;0.80;;;3.80;99.90;;;;;;5045568;28;20037;-77
2022/02/05 00:53:23;;;;;;;1.27;0.68;;;2.70;99.90;;;;;;5055079;28;20081;-77
2022/02/05 00:55:57;;;;;;;5.70;0.50;;;2.60;99.90;;;;;;5053471;28;20022;-78
2022/02/05 00:58:23;;;;;;;2.33;0.68;;;2.80;99.90;;;;;;5053675;28;20033;-77
2022/02/05 01:00:48;;;;;;;3.53;0.70;;;2.80;99.90;;;;;;5063837;28;20063;-77
2022/02/05 01:03:14;;;;;;;2.35;0.70;;;2.70;99.90;;;;;;5062699;28;20036;-77
2022/02/05 01:05:42;;;;;;;2.75;0.98;;;2.70;99.90;;;;;;5052063;28;20033;-77
2022/02/05 01:08:08;;;;;;;2.50;0.80;;;2.60;99.90;;;;;;5056887;28;20031;-77
2022/02/05 01:10:34;;;;;;;3.70;1.05;;;4.50;99.90;;;;;;5052614;28;20104;-78
2022/02/05 01:13:10;;;;;;;4.70;0.70;;;2.60;99.90;;;;;;5053592;28;20104;-78
2022/02/05 01:15:42;;;;;;;4.60;0.98;;;4.60;99.90;;;;;;5055400;28;20033;-76
2022/02/05 01:18:10;;;;;;;;;;;2.60;99.90;;;;;;5061014;28;20033;-76
2022/02/05 01:21:06;;;;;;;3.25;0.93;;;2.60;99.90;;;;;;5056830;28;19909;-78
2022/02/05 01:23:32;;;;;;;2.08;0.82;;;2.60;99.90;;;;;;5060321;28;20076;-77
2022/02/05 01:26:08;;;;;;;4.57;0.70;;;2.40;99.90;;;;;;5060919;28;20025;-78
2022/02/05 01:28:35;;;;;;;3.08;0.60;;;3.80;99.90;;;;;;5060726;28;20025;-77
2022/02/05 01:31:01;;;;;;;4.28;0.70;;;2.30;99.90;;;;;;5059786;28;20482;-78
2022/02/05 01:36:22;;;;;;;3.17;0.77;;;3.80;99.90;;;;;;5060790;28;20024;-78
2022/02/05 01:58:08;;;;;;;3.67;1.30;;;2.70;99.90;;;;;;5059572;28;20033;-77
2022/02/05 02:11:46;;;;;;;3.30;1.30;;;2.80;99.90;;;;;;5056395;28;20048;-78
2022/02/05 02:25:29;;;;;;;4.53;1.73;;;2.60;99.90;;;;;;5057406;28;20037;-78
2022/02/05 02:30:00;;;;;;;4.70;1.85;;;2.60;99.90;;;;;;5056467;28;20082;-78
2022/02/05 02:32:26;;;;;;;3.25;1.70;;;2.60;99.90;;;;;;5055708;28;20044;-78
2022/02/05 02:34:57;;;;;;;6.30;2.03;;;2.60;99.90;;;;;;5055325;28;20029;-78
2022/02/05 02:37:31;;;;;;;6.82;2.13;;;2.50;99.90;;;;;;5055530;28;20035;-77
2022/02/05 02:40:12;;;;;;;3.88;1.83;;;3.10;99.90;;;;;;5039041;28;20036;-77
2022/02/05 02:42:43;;;;;;;4.35;1.90;;;3.70;99.90;;;;;;5055950;28;20028;-78
2022/02/05 02:45:09;;;;;;;3.75;1.95;;;2.50;99.90;;;;;;5056410;28;20021;-77
2022/02/05 02:47:40;;;;;;;4.63;1.88;;;2.70;99.90;;;;;;5056066;28;20040;-78
2022/02/05 02:50:11;;;;;;;7.90;2.20;;;2.60;99.90;;;;;;5054890;28;20059;-77
2022/02/05 02:58:08;;;;;;;4.97;2.00;;;2.60;99.90;;;;;;5057013;28;20040;-78
2022/02/05 03:00:34;;;;;;;4.93;2.05;;;3.90;99.90;;;;;;5055790;28;20029;-77
2022/02/05 03:03:01;;;;;;;10.73;2.47;;;2.50;99.90;;;;;;5055778;28;20080;-77
2022/02/05 03:05:26;;;;;;;5.82;1.73;;;2.50;99.90;;;;;;5057345;28;20120;-77
2022/02/05 03:07:52;;;;;;;4.30;1.65;;;2.60;99.90;;;;;;5056132;28;20072;-78
2022/02/05 03:10:18;;;;;;;3.33;1.33;;;2.60;99.90;;;;;;5053266;28;20029;-77
2022/02/05 03:12:44;;;;;;;4.35;1.85;;;2.70;99.90;;;;;;5054674;28;20028;-78
2022/02/05 03:15:14;;;;;;;5.20;1.65;;;2.50;99.90;;;;;;5054978;28;20025;-78
2022/02/05 03:17:52;;;;;;;6.82;1.98;;;2.50;99.90;;;;;;5055765;28;20029;-78
2022/02/05 03:20:18;;;;;;;4.43;1.77;;;1.80;99.90;;;;;;5053624;28;20121;-77
2022/02/05 03:22:43;;;;;;;3.03;1.75;;;4.30;99.90;;;;;;5055931;28;20141;-78
2022/02/05 03:25:09;;;;;;;8.88;1.55;;;2.60;99.90;;;;;;5057624;28;20028;-78
2022/02/05 03:27:35;;;;;;;4.50;1.85;;;2.50;99.90;;;;;;5057964;28;20029;-77
2022/02/05 03:30:00;;;;;;;4.40;1.80;;;2.50;99.90;;;;;;5054836;28;20032;-77
2022/02/05 03:32:26;;;;;;;6.47;1.67;;;2.40;99.90;;;;;;5058491;28;20079;-77
2022/02/05 03:34:52;;;;;;;5.45;2.17;;;4.10;99.90;;;;;;5058898;28;20067;-77
2022/02/05 03:37:18;;;;;;;4.57;1.70;;;3.00;99.90;;;;;;5058399;28;20016;-77
2022/02/05 03:39:44;;;;;;;4.97;1.52;;;3.10;99.90;;;;;;5055544;28;20032;-78
2022/02/05 03:42:10;;;;;;;3.95;1.38;;;3.20;99.90;;;;;;5055453;28;20021;-78
2022/02/05 03:44:36;;;;;;;5.43;1.80;;;3.20;99.90;;;;;;5055448;28;20028;-77
2022/02/05 03:47:02;;;;;;;5.15;1.17;;;3.30;99.90;;;;;;5055691;28;20390;-77
2022/02/05 03:49:27;;;;;;;2.45;1.30;;;3.20;99.90;;;;;;5070534;28;20013;-76
2022/02/05 03:51:54;;;;;;;5.82;1.65;;;3.20;99.90;;;;;;5035285;28;20094;-77
2022/02/05 03:54:21;;;;;;;2.60;1.40;;;3.30;99.90;;;;;;5052185;28;20025;-78
2022/02/05 03:56:47;;;;;;;6.13;1.77;;;4.60;99.90;;;;;;5052128;28;20021;-77
2022/02/05 03:59:13;;;;;;;7.15;1.50;;;3.30;99.90;;;;;;5050937;28;20563;-77
2022/02/05 04:01:39;;;;;;;5.43;1.80;;;3.40;99.90;;;;;;5051591;28;20025;-77
2022/02/05 04:04:05;;;;;;;7.38;1.70;;;3.40;99.90;;;;;;5053061;28;20029;-78
2022/02/05 04:06:30;;;;;;;5.68;1.77;;;5.70;99.90;;;;;;5055386;28;20505;-77
2022/02/05 04:09:00;;;;;;;2.05;1.30;;;3.60;99.90;;;;;;5053515;28;20029;-77
2022/02/05 04:16:47;;;;;;;6.43;1.50;;;3.60;99.90;;;;;;5052540;28;20036;-78
2022/02/05 04:19:13;;;;;;;4.18;1.40;;;3.50;99.90;;;;;;5051827;28;20025;-77
2022/02/05 04:21:39;;;;;;;5.50;1.30;;;3.50;99.90;;;;;;5051289;28;20033;-77
2022/02/05 04:24:05;;;;;;;6.25;1.52;;;4.80;99.90;;;;;;5050930;28;20129;-78
2022/02/05 04:26:31;;;;;;;6.20;1.67;;;3.50;99.90;;;;;;5052125;28;20496;-77
2022/02/05 04:28:57;;;;;;;4.93;1.70;;;3.60;99.90;;;;;;5052431;28;20120;-77
2022/02/05 04:31:23;;;;;;;8.15;1.45;;;3.50;99.90;;;;;;5053765;28;20563;-77
2022/02/05 04:33:48;;;;;;;5.68;2.00;;;3.60;99.90;;;;;;5052004;28;20100;-77
2022/02/05 04:36:17;;;;;;;4.05;1.95;;;3.50;99.90;;;;;;5051566;28;20462;-78
2022/02/05 04:38:45;;;;;;;3.72;1.38;;;3.60;99.90;;;;;;5051300;28;20033;-77
2022/02/05 04:46:57;;;;;;;7.28;1.48;;;3.60;99.90;;;;;;5065835;28;20025;-77
2022/02/05 04:50:01;;;;;;;5.78;1.35;;;3.50;99.90;;;;;;5054644;28;20044;-77
2022/02/05 04:55:09;;;;;;;9.77;2.35;;;3.40;99.90;;;;;;5055971;28;20021;-78
2022/02/05 04:57:49;;;;;;;8.43;2.10;;;3.50;99.90;;;;;;5055794;28;20024;-77
2022/02/05 05:00:32;;;;;;;2.75;1.20;;;4.70;99.90;;;;;;5054423;28;20408;-77
2022/02/05 05:03:23;;;;;;;4.55;1.45;;;3.50;99.90;;;;;;5055444;28;20033;-77
2022/02/05 05:21:50;;;;;;;7.18;2.20;;;3.50;99.90;;;;;;5035059;28;20083;-77
2022/02/05 05:24:16;;;;;;;5.90;1.10;;;4.20;99.90;;;;;;5039427;28;20393;-77
2022/02/05 05:26:41;;;;;;;6.32;1.40;;;3.50;99.90;;;;;;5054626;28;20040;-77
2022/02/05 05:29:07;;;;;;;4.95;1.38;;;1.30;99.90;;;;;;5053468;28;20033;-77
2022/02/05 05:31:32;;;;;;;3.67;1.27;;;3.50;99.90;;;;;;5054512;28;20079;-77
2022/02/05 05:33:59;;;;;;;5.65;1.35;;;3.60;99.90;;;;;;5053382;28;20021;-77
2022/02/05 05:36:24;;;;;;;4.80;1.60;;;3.40;99.90;;;;;;5054506;28;20486;-77
2022/02/05 05:38:50;;;;;;;5.72;1.23;;;3.50;99.90;;;;;;5053063;28;20031;-77
2022/02/05 05:41:16;;;;;;;2.63;1.13;;;3.40;99.90;;;;;;5051089;28;20068;-77
2022/02/05 05:44:02;;;;;;;4.03;1.00;;;3.40;99.90;;;;;;5052923;28;20060;-76
2022/02/05 05:46:33;;;;;;;4.10;1.38;;;3.50;99.90;;;;;;5054407;28;20032;-77
2022/02/05 05:49:18;;;;;;;3.30;1.43;;;3.70;99.90;;;;;;5053569;28;20120;-77
2022/02/05 05:51:45;;;;;;;5.20;1.52;;;4.80;99.90;;;;;;5054228;28;20627;-77
2022/02/05 05:54:11;;;;;;;4.75;1.42;;;3.50;99.90;;;;;;5053447;28;20025;-77
2022/02/05 05:56:37;;;;;;;3.20;1.20;;;3.40;99.90;;;;;;5053191;28;20021;-77
2022/02/05 05:59:05;;;;;;;3.72;1.02;;;4.70;99.90;;;;;;5053579;28;20037;-77
2022/02/05 06:01:31;;;;;;;4.70;1.33;;;3.60;99.90;;;;;;5053871;28;20044;-77
2022/02/05 06:03:58;;;;;;;8.18;1.23;;;3.60;99.90;;;;;;5054499;28;20036;-77
2022/02/05 06:06:23;;;;;;;3.95;1.20;;;3.40;99.90;;;;;;5053736;28;20083;-77
2022/02/05 06:08:49;;;;;;;3.10;1.25;;;3.60;99.90;;;;;;5053031;28;20037;-77
2022/02/05 06:11:15;;;;;;;5.43;1.42;;;3.50;99.90;;;;;;5037607;28;20025;-77
2022/02/05 06:13:41;;;;;;;6.25;1.42;;;4.10;99.90;;;;;;5033113;28;20057;-77
2022/02/05 06:16:11;;;;;;;4.15;1.30;;;3.60;99.90;;;;;;5033930;28;20049;-77
2022/02/05 06:18:37;;;;;;;5.32;1.23;;;3.60;99.90;;;;;;5045221;28;20028;-77
2022/02/05 06:21:02;;;;;;;4.53;1.20;;;4.60;99.90;;;;;;5052803;28;20041;-77
2022/02/05 06:23:28;;;;;;;9.75;1.38;;;3.50;99.90;;;;;;5053923;28;20025;-77
2022/02/05 06:25:54;;;;;;;6.60;1.60;;;3.50;99.90;;;;;;5053582;28;20025;-77
2022/02/05 06:28:19;;;;;;;7.50;1.60;;;3.50;99.90;;;;;;5052294;28;20538;-77
2022/02/05 06:30:45;;;;;;;3.50;1.20;;;3.50;99.90;;;;;;5052367;28;20025;-78
2022/02/05 06:33:12;;;;;;;4.43;1.67;;;3.50;99.90;;;;;;5053289;28;20037;-77
2022/02/05 06:35:38;;;;;;;4.10;1.30;;;3.40;99.90;;;;;;5053332;28;20046;-77
2022/02/05 06:38:04;;;;;;;6.32;1.40;;;4.20;99.90;;;;;;5052967;28;20574;-77
2022/02/05 06:40:30;;;;;;;3.60;1.50;;;3.40;99.90;;;;;;5052382;28;20039;-77
2022/02/05 06:42:56;;;;;;;7.15;1.20;;;3.30;99.90;;;;;;5052173;28;20398;-77
2022/02/05 06:45:21;;;;;;;4.53;1.33;;;3.80;99.90;;;;;;5053180;28;20143;-78
2022/02/05 06:47:47;;;;;;;6.25;1.73;;;4.80;99.90;;;;;;5052875;28;20033;-78
2022/02/05 06:50:13;;;;;;;2.22;0.80;;;3.80;99.90;;;;;;5050752;28;20040;-77
2022/02/05 06:52:43;;;;;;;3.85;0.98;;;3.60;99.90;;;;;;5053026;28;20091;-77
2022/02/05 06:55:10;;;;;;;1.70;0.98;;;3.70;99.90;;;;;;5052239;28;20028;-77
2022/02/05 06:57:36;;;;;;;5.57;1.52;;;5.40;99.90;;;;;;5053063;28;20489;-77
2022/02/05 07:00:05;;;;;;;5.70;1.33;;;3.70;99.90;;;;;;5051917;28;20170;-77
2022/02/05 07:02:31;;;;;;;5.85;1.25;;;3.70;99.90;;;;;;5053436;28;20401;-77
2022/02/05 07:04:57;;;;;;;7.65;1.92;;;3.70;99.90;;;;;;5051532;28;20116;-78
2022/02/05 07:07:23;;;;;;;7.93;1.30;;;3.60;99.90;;;;;;5052436;28;20092;-77
2022/02/05 07:09:49;;;;;;;5.60;1.20;;;5.70;99.90;;;;;;5053759;28;20044;-77
2022/02/05 07:12:14;;;;;;;3.22;1.00;;;3.70;99.90;;;;;;5053499;28;20021;-77
2022/02/05 07:15:00;;;;;;;6.70;1.50;;;3.70;99.90;;;;;;5052671;28;20029;-77
2022/02/05 07:17:40;;;;;;;4.88;2.17;;;3.60;99.90;;;;;;5051353;28;20051;-77
2022/02/05 07:20:21;;;;;;;5.85;1.13;;;3.50;99.90;;;;;;5050992;28;20399;-76
2022/02/05 07:30:44;;;;;;;7.68;1.67;;;3.50;99.90;;;;;;5051358;28;20128;-77
2022/02/05 07:33:10;;;;;;;3.95;1.40;;;3.60;99.90;;;;;;5052300;28;20100;-77
2022/02/05 07:35:35;;;;;;;4.15;1.50;;;5.00;99.90;;;;;;5052475;28;20029;-77
2022/02/05 07:38:01;;;;;;;6.07;1.52;;;3.90;99.90;;;;;;5051789;28;20033;-77
2022/02/05 07:40:26;;;;;;;8.02;2.30;;;3.60;99.90;;;;;;5050912;28;20043;-76
2022/02/05 07:42:52;;;;;;;4.63;1.40;;;3.70;99.90;;;;;;5052224;28;20141;-77
2022/02/05 07:45:19;;;;;;;5.18;1.50;;;3.90;99.90;;;;;;5052220;28;20028;-76
2022/02/05 07:47:46;;;;;;;2.92;1.42;;;3.80;99.90;;;;;;5052341;28;20029;-77
2022/02/05 07:50:11;;;;;;;6.78;1.52;;;3.80;99.90;;;;;;5050794;28;20130;-77
2022/02/05 07:52:37;;;;;;;3.83;1.20;;;3.70;99.90;;;;;;5051757;28;20505;-76
2022/02/05 07:55:03;;;;;;;7.85;1.73;;;3.90;99.90;;;;;;5051978;28;20021;-77
2022/02/05 07:57:30;;;;;;;5.90;1.50;;;3.80;99.90;;;;;;5051894;28;20024;-77
2022/02/05 07:59:55;;;;;;;3.63;1.30;;;3.90;99.90;;;;;;5049497;28;20108;-75
2022/02/05 08:02:21;;;;;;;4.78;1.48;;;3.80;99.90;;;;;;5052021;28;20530;-75
2022/02/05 08:04:47;;;;;;;7.70;3.28;;;3.80;99.90;;;;;;5051841;28;20028;-75
2022/02/05 08:07:13;;;;;;;6.70;1.55;;;4.80;99.90;;;;;;5051540;28;20029;-77
2022/02/05 08:12:22;;;;;;;8.05;1.42;;;4.00;99.90;;;;;;5051648;28;20490;-76
2022/02/05 08:14:51;;;;;;;3.28;1.35;;;4.00;99.90;;;;;;5051799;28;20029;-75
2022/02/05 08:17:28;;;;;;;5.13;1.45;;;4.00;99.90;;;;;;5055003;28;20025;-75
2022/02/05 08:19:54;;;;;;;4.10;1.35;;;4.10;99.90;;;;;;5056293;28;20029;-76
2022/02/05 08:22:20;;;;;;;5.68;1.38;;;4.20;99.90;;;;;;5051140;28;20070;-75
2022/02/05 08:24:46;;;;;;;10.68;1.70;;;4.30;99.90;;;;;;5057437;28;20635;-75
2022/02/05 08:27:13;;;;;;;3.03;1.20;;;4.10;99.90;;;;;;5058240;28;20536;-76
2022/02/05 08:29:44;;;;;;;7.22;1.60;;;4.20;99.90;;;;;;5055331;28;20032;-75
2022/02/05 08:32:10;;;;;;;5.00;1.42;;;4.30;99.90;;;;;;5058321;28;20059;-75
2022/02/05 08:34:35;;;;;;;6.35;1.70;;;5.00;99.90;;;;;;5058611;28;20508;-75
2022/02/05 08:37:01;;;;;;;5.20;1.73;;;4.50;99.90;;;;;;5058490;28;20017;-75
2022/02/05 08:39:27;;;;;;;8.63;1.88;;;4.80;99.90;;;;;;5057528;28;20070;-77
2022/02/05 08:41:52;;;;;;;5.07;1.73;;;5.40;99.90;;;;;;5059500;28;20037;-76
2022/02/05 08:44:18;;;;;;;4.50;1.92;;;5.80;99.90;;;;;;5059243;28;20040;-77
2022/02/05 08:46:46;;;;;;;5.72;1.73;;;4.50;99.90;;;;;;5060097;28;20040;-77
2022/02/05 08:49:11;;;;;;;6.70;2.22;;;4.20;99.90;;;;;;5059871;28;20032;-77
2022/02/05 08:51:37;;;;;;;7.78;2.63;;;4.10;99.90;;;;;;5058200;28;20042;-76
2022/02/05 08:54:02;;;;;;;7.78;2.63;;;5.30;99.90;;;;;;5058123;28;20025;-77
2022/02/05 08:56:28;;;;;;;6.38;2.70;;;5.10;99.90;;;;;;5058091;28;20029;-76
2022/02/05 08:58:55;;;;;;;7.00;2.20;;;4.40;99.90;;;;;;5057187;28;20528;-76
2022/02/05 09:01:41;;;;;;;8.52;2.60;;;5.00;99.90;;;;;;5057935;28;20063;-78
2022/02/05 09:04:17;;;;;;;6.05;2.08;;;4.30;99.90;;;;;;5056772;28;20025;-76
2022/02/05 09:06:46;;;;;;;5.45;1.73;;;4.30;99.90;;;;;;5057672;28;20094;-76
2022/02/05 09:16:39;;;;;;;;;;;4.90;99.90;;;;;;5060014;28;20037;-76
2022/02/05 09:19:05;;;;;;;8.90;2.30;;;4.90;99.90;;;;;;5063044;28;19909;-77
2022/02/05 09:21:31;;;;;;;4.43;1.70;;;4.80;99.90;;;;;;5061381;28;20107;-77
2022/02/05 09:23:59;;;;;;;6.00;1.77;;;6.00;99.90;;;;;;5061515;28;20033;-77
2022/02/05 09:26:25;;;;;;;6.88;2.15;;;4.80;99.90;;;;;;5058111;28;20025;-77
2022/02/05 09:28:53;;;;;;;9.40;1.88;;;5.10;99.90;;;;;;5057185;28;20029;-77
2022/02/05 09:31:28;;;;;;;8.18;2.20;;;5.60;99.90;;;;;;5056410;28;20025;-78
2022/02/05 09:33:54;;;;;;;5.80;2.20;;;5.60;99.90;;;;;;5056789;28;20429;-78
2022/02/05 09:36:20;;;;;;;5.82;2.47;;;6.10;99.90;;;;;;5055997;28;20044;-75
2022/02/05 09:38:45;;;;;;;7.60;1.90;;;6.10;99.90;;;;;;5055463;28;20025;-78
2022/02/05 09:41:11;;;;;;;7.88;1.75;;;6.70;99.90;;;;;;5055605;28;20041;-77
2022/02/05 09:43:37;;;;;;;8.05;2.15;;;6.90;99.90;;;;;;5058922;28;20037;-78
2022/02/05 09:46:02;;;;;;;6.15;1.88;;;7.10;99.90;;;;;;5056054;28;20417;-75
2022/02/05 09:48:31;;;;;;;6.43;1.80;;;6.50;99.90;;;;;;5053461;28;20444;-77
2022/02/05 09:51:06;;;;;;;5.90;1.60;;;6.30;99.90;;;;;;5053454;28;20037;-76
2022/02/05 09:53:33;;;;;;;8.15;1.63;;;8.40;99.90;;;;;;5053288;28;20051;-76
2022/02/05 09:55:59;;;;;;;11.35;1.88;;;7.20;99.90;;;;;;5052763;28;20108;-76
2022/02/05 09:58:25;;;;;;;8.10;1.70;;;7.70;99.90;;;;;;5053523;28;20061;-76
2022/02/05 10:01:12;;;;;;;8.88;1.73;;;6.80;99.90;;;;;;5053479;28;20590;-75
2022/02/05 10:03:39;;;;;;;12.05;1.65;;;6.70;99.90;;;;;;5053643;28;20032;-76
2022/02/05 10:06:09;;;;;;;6.90;1.67;;;7.20;99.90;;;;;;5053838;28;20032;-76
2022/02/05 10:08:35;;;;;;;6.15;1.58;;;7.00;99.90;;;;;;5052839;28;20112;-76
2022/02/05 10:11:02;;;;;;;6.55;1.45;;;7.70;99.90;;;;;;5053137;28;20022;-77
2022/02/05 10:13:29;;;;;;;7.95;1.42;;;9.50;99.90;;;;;;5053713;28;20025;-77
2022/02/05 10:15:56;;;;;;;7.05;1.48;;;8.90;99.90;;;;;;5053430;28;20033;-77
2022/02/05 10:18:26;;;;;;;8.52;2.00;;;8.20;99.90;;;;;;5052914;28;20057;-77
2022/02/05 10:20:57;;;;;;;8.30;1.83;;;7.30;99.90;;;;;;5052966;28;20128;-76
2022/02/05 10:23:23;;;;;;;3.42;1.15;;;8.20;99.90;;;;;;5052875;28;20029;-76
2022/02/05 10:25:54;;;;;;;2.20;1.25;;;7.70;99.90;;;;;;5051140;28;20594;-76
2022/02/05 10:28:20;;;;;;;7.63;1.40;;;8.10;99.90;;;;;;5050784;28;20037;-77
2022/02/05 10:30:50;;;;;;;8.02;1.20;;;8.90;99.90;;;;;;5052704;28;20027;-77
2022/02/05 10:33:24;;;;;;;5.95;1.20;;;9.30;99.90;;;;;;5053189;28;20104;-77
2022/02/05 10:36:10;;;;;;;5.35;1.42;;;10.40;99.90;;;;;;5053078;28;20028;-77
2022/02/05 10:43:54;;;;;;;6.57;1.40;;;8.50;99.90;;;;;;5052305;28;20396;-76
2022/02/05 10:46:21;;;;;;;7.03;2.05;;;10.60;99.90;;;;;;5052964;28;20025;-75
2022/02/05 10:48:47;;;;;;;8.10;1.63;;;10.10;99.90;;;;;;5052524;28;20511;-77
2022/02/05 10:51:13;;;;;;;7.63;1.63;;;10.50;99.90;;;;;;5049519;28;20244;-77
2022/02/05 10:53:54;;;;;;;7.38;1.73;;;10.00;99.90;;;;;;5052192;28;20378;-77
2022/02/05 10:56:33;;;;;;;8.60;1.50;;;10.20;99.90;;;;;;5051090;28;20488;-77
2022/02/05 11:07:18;;;;;;;7.50;1.55;;;9.30;99.90;;;;;;5052679;28;20136;-77
2022/02/05 11:10:00;;;;;;;6.38;1.58;;;10.90;99.90;;;;;;5051724;28;20055;-77
2022/02/05 11:20:32;;;;;;;5.18;1.55;;;8.00;99.90;;;;;;5039891;28;20091;-77
2022/02/05 11:23:02;;;;;;;4.18;1.38;;;7.70;99.90;;;;;;5031176;28;20030;-77
2022/02/05 11:25:34;;;;;;;4.03;1.45;;;7.90;99.90;;;;;;5032973;28;20498;-77
2022/02/05 11:28:00;;;;;;;8.30;1.38;;;7.60;99.90;;;;;;5031339;28;20030;-76
2022/02/05 11:30:31;;;;;;;9.75;1.70;;;7.30;99.90;;;;;;5045362;28;20052;-77
2022/02/05 11:33:05;;;;;;;9.90;1.90;;;7.10;99.90;;;;;;5052207;28;20024;-77
2022/02/05 11:38:11;;;;;;;6.10;2.15;;;7.50;99.90;;;;;;5052369;28;20119;-78
2022/02/05 11:40:46;;;;;;;5.07;1.50;;;7.60;99.90;;;;;;5050611;28;20056;-77
2022/02/05 11:43:16;;;;;;;3.85;1.40;;;7.90;99.90;;;;;;5052529;28;20063;-78
2022/02/05 11:45:42;;;;;;;11.00;2.13;;;8.70;99.90;;;;;;5052705;28;20053;-77
2022/02/05 11:48:46;;;;;;;6.90;1.55;;;8.10;99.90;;;;;;5052144;28;20630;-78
2022/02/05 11:51:16;;;;;;;4.35;1.65;;;7.90;99.90;;;;;;5043881;28;20033;-77
2022/02/05 11:53:59;;;;;;;5.15;1.48;;;8.40;99.90;;;;;;5051974;28;20025;-77
2022/02/05 11:56:36;;;;;;;7.35;1.85;;;8.50;99.90;;;;;;5052429;28;20474;-78
2022/02/05 11:59:02;;;;;;;6.88;1.80;;;8.10;99.90;;;;;;5051990;28;20032;-77
2022/02/05 12:01:35;;;;;;;5.75;1.60;;;9.20;99.90;;;;;;5052267;28;20017;-77
2022/02/05 12:04:21;;;;;;;14.52;1.50;;;8.30;99.90;;;;;;5051742;28;20037;-77
2022/02/05 12:06:55;;;;;;;7.03;1.65;;;8.70;99.90;;;;;;5051475;28;20036;-77
2022/02/05 12:09:42;;;;;;;4.18;1.20;;;8.60;99.90;;;;;;5050814;28;20476;-77
2022/02/05 12:12:40;;;;;;;4.90;1.35;;;8.60;99.90;;;;;;5051648;28;20430;-77
2022/02/05 12:15:15;;;;;;;6.75;1.38;;;8.30;99.90;;;;;;5051373;28;20401;-76
2022/02/05 12:21:09;;;;;;;6.35;1.33;;;8.90;99.90;;;;;;5051168;28;20497;-77
2022/02/05 12:26:09;;;;;;;4.82;1.75;;;10.60;99.90;;;;;;5051754;28;20120;-77
2022/02/05 12:28:37;;;;;;;8.80;1.42;;;11.90;99.90;;;;;;5050982;28;20100;-77
2022/02/05 12:31:05;;;;;;;5.47;1.42;;;11.00;99.90;;;;;;5049834;28;20025;-77
2022/02/05 12:34:19;;;;;;;4.43;1.50;;;11.10;99.90;;;;;;5051728;28;20025;-76
2022/02/05 12:36:49;;;;;;;5.90;1.33;;;10.80;99.90;;;;;;5019475;28;20860;-76
2022/02/05 12:39:19;;;;;;;7.75;3.03;;;10.30;99.90;;;;;;5042390;28;20118;-76
2022/02/05 12:42:07;;;;;;;9.93;1.45;;;11.20;99.90;;;;;;5050807;28;20115;-76
2022/02/05 12:44:37;;;;;;;6.03;1.02;;;10.60;99.90;;;;;;5053146;28;20025;-76
2022/02/05 12:47:13;;;;;;;5.30;1.40;;;10.90;99.90;;;;;;5049967;28;20032;-76
2022/02/05 12:52:09;;;;;;;4.75;1.30;;;10.80;99.90;;;;;;5051833;28;20147;-77
2022/02/05 12:54:36;;;;;;;8.48;1.55;;;9.60;99.90;;;;;;5054535;28;20044;-76
2022/02/05 12:57:02;;;;;;;4.80;1.35;;;10.00;99.90;;;;;;5051141;28;20014;-76
2022/02/05 12:59:35;;;;;;;2.42;1.17;;;9.60;99.90;;;;;;5051124;28;20061;-76
2022/02/05 13:02:10;;;;;;;6.75;1.35;;;9.50;99.90;;;;;;5050915;28;20032;-76
2022/02/05 13:04:46;;;;;;;6.90;1.23;;;11.60;99.90;;;;;;5036902;28;20033;-76
2022/02/05 13:07:18;;;;;;;4.35;1.27;;;10.10;99.90;;;;;;5054312;28;20032;-75
2022/02/05 13:09:53;;;;;;;7.68;1.27;;;10.30;99.90;;;;;;5051728;28;20021;-76
2022/02/05 13:12:23;;;;;;;5.15;1.20;;;9.90;99.90;;;;;;5053021;28;20045;-76
2022/02/05 13:15:06;;;;;;;5.40;1.58;;;10.00;99.90;;;;;;5052868;28;20029;-76
2022/02/05 13:28:35;;;;;;;2.75;1.15;;;10.90;99.90;;;;;;5053914;28;20041;-76
2022/02/05 13:34:02;;;;;;;4.03;0.85;;;10.30;99.90;;;;;;5048241;28;20082;-76
2022/02/05 13:36:45;;;;;;;9.87;2.67;;;11.00;99.90;;;;;;5054591;28;20055;-75
2022/02/05 13:39:51;;;;;;;2.70;0.73;;;10.50;99.90;;;;;;5053104;28;20508;-76
2022/02/05 13:42:17;;;;;;;5.22;1.20;;;10.80;99.90;;;;;;5053646;28;20104;-76
2022/02/05 13:44:57;;;;;;;3.72;0.82;;;10.80;99.60;;;;;;5053057;28;20532;-76
2022/02/05 13:47:34;;;;;;;3.55;1.02;;;10.30;99.60;;;;;;5053898;28;20091;-76
2022/02/05 13:50:06;;;;;;;4.28;1.15;;;9.70;99.90;;;;;;5053057;28;20024;-75
2022/02/05 13:52:36;;;;;;;5.70;1.57;;;8.80;99.90;;;;;;5053864;28;20025;-76
2022/02/05 13:55:35;;;;;;;5.85;1.15;;;8.70;99.90;;;;;;5053745;28;20428;-76
2022/02/05 13:58:04;;;;;;;5.43;1.00;;;8.90;99.90;;;;;;5048923;28;20041;-76
2022/02/05 14:00:39;;;;;;;5.57;1.17;;;8.90;99.90;;;;;;5053681;28;20032;-76
2022/02/05 14:03:08;;;;;;;3.97;1.13;;;9.00;99.90;;;;;;5047973;28;20029;-76
2022/02/05 14:05:34;;;;;;;8.40;1.20;;;10.80;99.90;;;;;;5053998;28;20053;-76
2022/02/05 14:08:00;;;;;;;4.13;0.75;;;10.70;99.90;;;;;;5053519;28;20043;-76
2022/02/05 14:10:26;;;;;;;2.05;0.75;;;9.70;99.90;;;;;;5052807;28;20444;-76
2022/02/05 14:12:56;;;;;;;12.85;1.23;;;9.50;99.90;;;;;;5053878;28;20389;-76
2022/02/05 14:15:24;;;;;;;4.72;1.00;;;9.30;99.90;;;;;;5053014;28;20092;-76
2022/02/05 14:18:12;;;;;;;5.45;0.80;;;11.20;99.90;;;;;;5053493;28;20029;-76
2022/02/05 14:21:10;;;;;;;6.45;1.80;;;9.30;99.90;;;;;;5052944;28;20117;-76
2022/02/05 14:23:52;;;;;;;5.43;1.05;;;11.10;99.90;;;;;;5041635;28;20065;-76
2022/02/05 14:26:25;;;;;;;8.18;1.30;;;8.70;99.90;;;;;;5053898;28;20028;-76
2022/02/05 14:28:55;;;;;;;7.72;1.20;;;10.00;99.90;;;;;;5051447;28;20059;-76
2022/02/05 14:31:33;;;;;;;4.65;1.00;;;9.50;99.90;;;;;;5053315;28;20013;-76
2022/02/05 14:34:17;;;;;;;4.55;0.82;;;9.70;99.90;;;;;;5053349;28;20078;-76
2022/02/05 14:42:06;;;;;;;5.05;1.35;;;8.70;99.90;;;;;;5053407;28;20039;-76
2022/02/05 14:44:32;;;;;;;5.95;1.05;;;8.60;99.90;;;;;;5052775;28;20028;-76
2022/02/05 14:46:58;;;;;;;5.13;1.40;;;8.50;99.90;;;;;;5053377;28;20108;-76
2022/02/05 14:49:24;;;;;;;4.90;1.02;;;8.50;99.90;;;;;;5052428;28;20093;-76
2022/02/05 14:51:50;;;;;;;4.63;1.10;;;9.70;99.90;;;;;;5054604;28;20057;-75
2022/02/05 14:54:16;;;;;;;5.10;1.00;;;8.20;99.90;;;;;;5053667;28;20410;-76
2022/02/05 14:56:42;;;;;;;5.65;1.10;;;8.00;99.90;;;;;;5052817;28;20025;-75
2022/02/05 14:59:08;;;;;;;4.65;1.10;;;8.10;99.90;;;;;;5052120;28;20055;-75
2022/02/05 15:01:34;;;;;;;6.10;1.33;;;8.20;99.90;;;;;;5052475;28;20095;-75
2022/02/05 15:04:01;;;;;;;5.95;1.13;;;8.00;99.90;;;;;;5052662;28;20394;-76
2022/02/05 15:06:30;;;;;;;6.22;1.25;;;8.00;99.90;;;;;;5055240;28;20036;-76
2022/02/05 15:08:58;;;;;;;6.28;0.95;;;8.10;99.90;;;;;;5051426;28;20112;-76
2022/02/05 15:11:28;;;;;;;4.18;1.33;;;8.40;99.90;;;;;;5052602;28;20025;-75
2022/02/05 15:13:58;;;;;;;6.00;1.23;;;8.30;99.90;;;;;;5052759;28;20025;-75
2022/02/05 15:16:25;;;;;;;7.95;1.33;;;8.20;99.90;;;;;;5053248;28;20017;-76
2022/02/05 15:18:53;;;;;;;8.18;1.98;;;8.50;99.90;;;;;;5051298;28;20029;-76
2022/02/05 15:21:20;;;;;;;5.40;1.05;;;9.20;99.90;;;;;;5053078;28;20033;-76
2022/02/05 15:23:46;;;;;;;8.75;1.55;;;8.20;99.90;;;;;;5052152;28;20040;-76
2022/02/05 15:26:12;;;;;;;6.72;1.20;;;8.30;99.90;;;;;;5048885;28;20025;-76
2022/02/05 15:28:37;;;;;;;4.35;1.35;;;9.30;99.90;;;;;;5051424;28;20032;-76
2022/02/05 15:31:04;;;;;;;3.78;1.02;;;9.70;99.90;;;;;;5050660;28;20033;-76
2022/02/05 15:33:31;;;;;;;7.18;1.08;;;9.50;99.90;;;;;;5051631;28;20413;-76
2022/02/05 15:36:02;;;;;;;7.95;1.08;;;9.30;99.90;;;;;;5052003;28;20028;-76
2022/02/05 15:38:38;;;;;;;7.22;1.48;;;9.50;99.90;;;;;;5050025;28;20057;-76
2022/02/05 15:46:13;;;;;;;7.20;1.63;;;8.40;99.90;;;;;;5052273;28;20051;-77
2022/02/05 15:48:40;;;;;;;4.68;1.00;;;8.20;99.90;;;;;;5051442;28;20025;-76
2022/02/05 15:51:06;;;;;;;6.10;1.45;;;8.00;99.90;;;;;;5050471;28;20458;-76
2022/02/05 15:53:35;;;;;;;8.32;1.27;;;8.00;99.90;;;;;;5052607;28;20098;-77
2022/02/05 15:56:03;;;;;;;5.13;1.10;;;9.30;99.90;;;;;;5052166;28;20111;-77
2022/02/05 15:58:36;;;;;;;5.70;1.00;;;7.70;99.90;;;;;;5050996;28;20029;-78
2022/02/05 16:01:02;;;;;;;;;;;7.70;99.90;;;;;;5051844;28;20357;-77
2022/02/05 16:03:28;;;;;;;5.30;0.85;;;7.70;99.90;;;;;;5051607;28;19913;-77
2022/02/05 16:05:54;;;;;;;7.18;1.52;;;7.60;99.90;;;;;;5052590;28;20039;-77
2022/02/05 16:08:19;;;;;;;17.77;2.00;;;7.70;99.90;;;;;;5051311;28;20060;-77
2022/02/05 16:10:45;;;;;;;6.70;1.20;;;7.70;99.90;;;;;;5050899;28;20025;-77
2022/02/05 16:13:10;;;;;;;5.82;1.33;;;7.60;99.90;;;;;;5050527;28;20037;-77